sensor_id;sensor_type;location;lat;lon;timestamp;temperature;humidity
14182;DHT22;7171;50.936;6.764;2023-11-19T00:02:21;13.40;99.90
14182;DHT22;7171;50.936;6.764;2023-11-19T00:04:48;13.40;99.90
14182;DHT22;7171;50.936;6.764;2023-11-19T00:07:15;13.50;99.90
14182;DHT22;7171;50.936;6.764;2023-11-19T00:09:42;13.50;99.90
14182;DHT22;7171;50.936;6.764;2023-11-19T00:12:10;13.50;99.90
14182;DHT22;7171;50.936;6.764;2023-11-19T00:14:38;13.50;99.90
14182;DHT22;7171;50.936;6.764;2023-11-19T00:17:05;13.50;99.90
14182;DHT22;7171;50.936;6.764;2023-11-19T00:19:32;13.50;99.90
14182;DHT22;7171;50.936;6.764;2023-11-19T00:21:58;13.60;99.90
14182;DHT22;7171;50.936;6.764;2023-11-19T00:24:28;13.60;99.90
14182;DHT22;7171;50.936;6.764;2023-11-19T00:26:56;13.60;99.90
14182;DHT22;7171;50.936;6.764;2023-11-19T00:29:24;13.60;99.90
14182;DHT22;7171;50.936;6.764;2023-11-19T00:31:50;13.70;99.90
14182;DHT22;7171;50.936;6.764;2023-11-19T00:34:17;13.60;99.90
14182;DHT22;7171;50.936;6.764;2023-11-19T00:36:47;13.70;99.90
14182;DHT22;7171;50.936;6.764;2023-11-19T00:39:14;13.70;99.90
14182;DHT22;7171;50.936;6.764;2023-11-19T00:41:41;13.70;99.90
14182;DHT22;7171;50.936;6.764;2023-11-19T00:44:08;13.70;99.90
14182;DHT22;7171;50.936;6.764;2023-11-19T00:46:36;13.70;99.90
14182;DHT22;7171;50.936;6.764;2023-11-19T00:49:04;13.70;99.90
14182;DHT22;7171;50.936;6.764;2023-11-19T00:51:30;13.60;99.90
14182;DHT22;7171;50.936;6.764;2023-11-19T00:53:58;13.70;99.90
14182;DHT22;7171;50.936;6.764;2023-11-19T00:56:24;13.70;99.90
14182;DHT22;7171;50.936;6.764;2023-11-19T00:58:51;13.70;99.90
14182;DHT22;7171;50.936;6.764;2023-11-19T01:01:18;13.80;99.90
14182;DHT22;7171;50.936;6.764;2023-11-19T01:03:46;13.80;99.90
14182;DHT22;7171;50.936;6.764;2023-11-19T01:06:13;13.80;99.90
14182;DHT22;7171;50.936;6.764;2023-11-19T01:08:42;13.80;99.90
14182;DHT22;7171;50.936;6.764;2023-11-19T01:11:19;13.80;99.90
14182;DHT22;7171;50.936;6.764;2023-11-19T01:13:47;13.80;99.90
14182;DHT22;7171;50.936;6.764;2023-11-19T01:16:13;13.70;99.90
14182;DHT22;7171;50.936;6.764;2023-11-19T01:18:40;13.70;99.90
14182;DHT22;7171;50.936;6.764;2023-11-19T01:21:08;13.80;99.90
14182;DHT22;7171;50.936;6.764;2023-11-19T01:23:35;13.80;99.90
14182;DHT22;7171;50.936;6.764;2023-11-19T01:26:02;13.80;99.90
14182;DHT22;7171;50.936;6.764;2023-11-19T01:28:31;13.80;99.90
14182;DHT22;7171;50.936;6.764;2023-11-19T01:30:57;13.70;99.90
14182;DHT22;7171;50.936;6.764;2023-11-19T01:33:24;13.70;99.90
14182;DHT22;7171;50.936;6.764;2023-11-19T01:35:51;13.70;99.90
14182;DHT22;7171;50.936;6.764;2023-11-19T01:38:19;13.70;99.90
14182;DHT22;7171;50.936;6.764;2023-11-19T01:40:46;13.80;99.90
14182;DHT22;7171;50.936;6.764;2023-11-19T01:43:13;13.80;99.90
14182;DHT22;7171;50.936;6.764;2023-11-19T01:45:57;13.80;99.90
14182;DHT22;7171;50.936;6.764;2023-11-19T01:48:23;13.80;99.90
14182;DHT22;7171;50.936;6.764;2023-11-19T01:50:50;13.80;99.90
14182;DHT22;7171;50.936;6.764;2023-11-19T01:53:20;13.80;99.90
14182;DHT22;7171;50.936;6.764;2023-11-19T01:55:47;13.80;99.90
14182;DHT22;7171;50.936;6.764;2023-11-19T01:58:15;13.80;99.90
14182;DHT22;7171;50.936;6.764;2023-11-19T02:00:42;13.80;99.90
14182;DHT22;7171;50.936;6.764;2023-11-19T02:03:10;13.80;99.90
14182;DHT22;7171;50.936;6.764;2023-11-19T02:05:39;13.80;99.90
14182;DHT22;7171;50.936;6.764;2023-11-19T02:08:07;13.80;99.90
14182;DHT22;7171;50.936;6.764;2023-11-19T02:10:35;13.80;99.90
14182;DHT22;7171;50.936;6.764;2023-11-19T02:13:02;13.90;99.90
14182;DHT22;7171;50.936;6.764;2023-11-19T02:15:31;13.90;99.90
14182;DHT22;7171;50.936;6.764;2023-11-19T02:18:17;13.90;99.90
14182;DHT22;7171;50.936;6.764;2023-11-19T02:20:44;13.90;99.90
14182;DHT22;7171;50.936;6.764;2023-11-19T02:23:12;13.90;99.90
14182;DHT22;7171;50.936;6.764;2023-11-19T02:25:41;13.90;99.90
14182;DHT22;7171;50.936;6.764;2023-11-19T02:28:10;13.90;99.90
14182;DHT22;7171;50.936;6.764;2023-11-19T02:30:38;13.90;99.90
14182;DHT22;7171;50.936;6.764;2023-11-19T02:33:05;13.90;99.90
14182;DHT22;7171;50.936;6.764;2023-11-19T02:35:32;14.00;99.90
14182;DHT22;7171;50.936;6.764;2023-11-19T02:37:59;13.90;99.90
14182;DHT22;7171;50.936;6.764;2023-11-19T02:40:26;13.90;99.90
14182;DHT22;7171;50.936;6.764;2023-11-19T02:42:53;13.90;99.90
14182;DHT22;7171;50.936;6.764;2023-11-19T02:45:22;13.90;99.90
14182;DHT22;7171;50.936;6.764;2023-11-19T02:47:49;14.00;99.90
14182;DHT22;7171;50.936;6.764;2023-11-19T02:50:17;13.90;99.90
14182;DHT22;7171;50.936;6.764;2023-11-19T02:52:51;13.90;99.90
14182;DHT22;7171;50.936;6.764;2023-11-19T02:55:19;13.90;99.90
14182;DHT22;7171;50.936;6.764;2023-11-19T02:57:45;13.90;99.90
14182;DHT22;7171;50.936;6.764;2023-11-19T03:00:14;13.90;99.90
14182;DHT22;7171;50.936;6.764;2023-11-19T03:02:43;13.90;99.90
14182;DHT22;7171;50.936;6.764;2023-11-19T03:05:12;13.90;99.90
14182;DHT22;7171;50.936;6.764;2023-11-19T03:07:41;13.90;99.90
14182;DHT22;7171;50.936;6.764;2023-11-19T03:10:09;13.90;99.90
14182;DHT22;7171;50.936;6.764;2023-11-19T03:12:39;13.80;99.90
14182;DHT22;7171;50.936;6.764;2023-11-19T03:15:07;13.90;99.90
14182;DHT22;7171;50.936;6.764;2023-11-19T03:17:35;13.80;99.90
14182;DHT22;7171;50.936;6.764;2023-11-19T03:20:04;13.80;99.90
14182;DHT22;7171;50.936;6.764;2023-11-19T03:22:32;13.80;99.90
14182;DHT22;7171;50.936;6.764;2023-11-19T03:25:00;13.80;99.90
14182;DHT22;7171;50.936;6.764;2023-11-19T03:27:27;13.80;99.90
14182;DHT22;7171;50.936;6.764;2023-11-19T03:29:53;13.80;99.90
14182;DHT22;7171;50.936;6.764;2023-11-19T03:32:20;13.70;99.90
14182;DHT22;7171;50.936;6.764;2023-11-19T03:34:47;13.80;99.90
14182;DHT22;7171;50.936;6.764;2023-11-19T03:37:15;13.70;99.90
14182;DHT22;7171;50.936;6.764;2023-11-19T03:39:42;13.80;99.90
14182;DHT22;7171;50.936;6.764;2023-11-19T03:42:09;13.80;99.90
14182;DHT22;7171;50.936;6.764;2023-11-19T03:44:38;13.80;99.90
14182;DHT22;7171;50.936;6.764;2023-11-19T03:47:05;13.80;99.90
14182;DHT22;7171;50.936;6.764;2023-11-19T03:49:32;13.80;99.90
14182;DHT22;7171;50.936;6.764;2023-11-19T03:51:59;13.80;99.90
14182;DHT22;7171;50.936;6.764;2023-11-19T03:54:27;13.80;99.90
14182;DHT22;7171;50.936;6.764;2023-11-19T03:56:54;13.80;99.90
14182;DHT22;7171;50.936;6.764;2023-11-19T03:59:20;13.80;99.90
14182;DHT22;7171;50.936;6.764;2023-11-19T04:01:47;13.80;99.90
14182;DHT22;7171;50.936;6.764;2023-11-19T04:04:14;13.80;99.90
14182;DHT22;7171;50.936;6.764;2023-11-19T04:06:40;13.90;99.90
14182;DHT22;7171;50.936;6.764;2023-11-19T04:09:07;13.90;99.90
14182;DHT22;7171;50.936;6.764;2023-11-19T04:11:35;13.90;99.90
14182;DHT22;7171;50.936;6.764;2023-11-19T04:14:02;13.90;99.90
14182;DHT22;7171;50.936;6.764;2023-11-19T04:16:29;13.80;99.90
14182;DHT22;7171;50.936;6.764;2023-11-19T04:18:56;13.80;99.90
14182;DHT22;7171;50.936;6.764;2023-11-19T04:21:22;13.80;99.90
14182;DHT22;7171;50.936;6.764;2023-11-19T04:23:49;13.90;99.90
14182;DHT22;7171;50.936;6.764;2023-11-19T04:26:16;13.80;99.90
14182;DHT22;7171;50.936;6.764;2023-11-19T04:28:44;13.90;99.90
14182;DHT22;7171;50.936;6.764;2023-11-19T04:31:11;13.80;99.90
14182;DHT22;7171;50.936;6.764;2023-11-19T04:33:38;13.80;99.90
14182;DHT22;7171;50.936;6.764;2023-11-19T04:36:05;13.90;99.90
14182;DHT22;7171;50.936;6.764;2023-11-19T04:38:32;13.90;99.90
14182;DHT22;7171;50.936;6.764;2023-11-19T04:41:00;13.80;99.90
14182;DHT22;7171;50.936;6.764;2023-11-19T04:43:27;13.80;99.90
14182;DHT22;7171;50.936;6.764;2023-11-19T04:45:55;13.90;99.90
14182;DHT22;7171;50.936;6.764;2023-11-19T04:48:21;13.90;99.90
14182;DHT22;7171;50.936;6.764;2023-11-19T04:50:48;13.80;99.90
14182;DHT22;7171;50.936;6.764;2023-11-19T04:53:16;13.90;99.90
14182;DHT22;7171;50.936;6.764;2023-11-19T04:58:10;13.90;99.90
14182;DHT22;7171;50.936;6.764;2023-11-19T05:00:37;13.80;99.90
14182;DHT22;7171;50.936;6.764;2023-11-19T05:03:05;13.80;99.90
14182;DHT22;7171;50.936;6.764;2023-11-19T05:05:32;13.80;99.90
14182;DHT22;7171;50.936;6.764;2023-11-19T05:07:58;13.80;99.90
14182;DHT22;7171;50.936;6.764;2023-11-19T05:10:25;13.70;99.90
14182;DHT22;7171;50.936;6.764;2023-11-19T05:12:52;13.70;99.90
14182;DHT22;7171;50.936;6.764;2023-11-19T05:15:19;13.70;99.90
14182;DHT22;7171;50.936;6.764;2023-11-19T05:17:46;13.70;99.90
14182;DHT22;7171;50.936;6.764;2023-11-19T05:20:14;13.70;99.90
14182;DHT22;7171;50.936;6.764;2023-11-19T05:22:41;13.70;99.90
14182;DHT22;7171;50.936;6.764;2023-11-19T05:25:08;13.60;99.90
14182;DHT22;7171;50.936;6.764;2023-11-19T05:27:36;13.70;99.90
14182;DHT22;7171;50.936;6.764;2023-11-19T05:30:04;13.60;99.90
14182;DHT22;7171;50.936;6.764;2023-11-19T05:32:32;13.70;99.90
14182;DHT22;7171;50.936;6.764;2023-11-19T05:34:59;13.60;99.90
14182;DHT22;7171;50.936;6.764;2023-11-19T05:37:27;13.60;99.90
14182;DHT22;7171;50.936;6.764;2023-11-19T05:39:54;13.60;99.90
14182;DHT22;7171;50.936;6.764;2023-11-19T05:42:21;13.60;99.90
14182;DHT22;7171;50.936;6.764;2023-11-19T05:44:49;13.60;99.90
14182;DHT22;7171;50.936;6.764;2023-11-19T05:47:16;13.60;99.90
14182;DHT22;7171;50.936;6.764;2023-11-19T05:49:43;13.60;99.90
14182;DHT22;7171;50.936;6.764;2023-11-19T05:52:10;13.60;99.90
14182;DHT22;7171;50.936;6.764;2023-11-19T05:54:39;13.70;99.90
14182;DHT22;7171;50.936;6.764;2023-11-19T05:57:05;13.60;99.90
14182;DHT22;7171;50.936;6.764;2023-11-19T05:59:34;13.60;99.90
14182;DHT22;7171;50.936;6.764;2023-11-19T06:02:01;13.60;99.90
14182;DHT22;7171;50.936;6.764;2023-11-19T06:04:28;13.60;99.90
14182;DHT22;7171;50.936;6.764;2023-11-19T06:06:55;13.60;99.90
14182;DHT22;7171;50.936;6.764;2023-11-19T06:09:22;13.60;99.90
14182;DHT22;7171;50.936;6.764;2023-11-19T06:11:51;13.60;99.90
14182;DHT22;7171;50.936;6.764;2023-11-19T06:14:18;13.60;99.90
14182;DHT22;7171;50.936;6.764;2023-11-19T06:16:45;13.60;99.90
14182;DHT22;7171;50.936;6.764;2023-11-19T06:19:12;13.60;99.90
14182;DHT22;7171;50.936;6.764;2023-11-19T06:21:38;13.60;99.90
14182;DHT22;7171;50.936;6.764;2023-11-19T06:24:06;13.60;99.90
14182;DHT22;7171;50.936;6.764;2023-11-19T06:26:34;13.60;99.90
14182;DHT22;7171;50.936;6.764;2023-11-19T06:29:02;13.60;99.90
14182;DHT22;7171;50.936;6.764;2023-11-19T06:31:29;13.60;99.90
14182;DHT22;7171;50.936;6.764;2023-11-19T06:33:56;13.60;99.90
14182;DHT22;7171;50.936;6.764;2023-11-19T06:36:23;13.60;99.90
14182;DHT22;7171;50.936;6.764;2023-11-19T06:38:52;13.60;99.90
14182;DHT22;7171;50.936;6.764;2023-11-19T06:41:18;13.60;99.90
14182;DHT22;7171;50.936;6.764;2023-11-19T06:43:45;13.60;99.90
14182;DHT22;7171;50.936;6.764;2023-11-19T06:46:17;13.60;99.90
14182;DHT22;7171;50.936;6.764;2023-11-19T06:48:43;13.60;99.90
14182;DHT22;7171;50.936;6.764;2023-11-19T06:51:10;13.50;99.90
14182;DHT22;7171;50.936;6.764;2023-11-19T06:53:37;13.60;99.90
14182;DHT22;7171;50.936;6.764;2023-11-19T06:56:05;13.60;99.90
14182;DHT22;7171;50.936;6.764;2023-11-19T06:58:36;13.50;99.90
14182;DHT22;7171;50.936;6.764;2023-11-19T07:01:03;13.60;99.90
14182;DHT22;7171;50.936;6.764;2023-11-19T07:03:31;13.50;99.90
14182;DHT22;7171;50.936;6.764;2023-11-19T07:05:58;13.50;99.90
14182;DHT22;7171;50.936;6.764;2023-11-19T07:08:25;13.50;99.90
14182;DHT22;7171;50.936;6.764;2023-11-19T07:10:52;13.50;99.90
14182;DHT22;7171;50.936;6.764;2023-11-19T07:13:18;13.60;99.90
14182;DHT22;7171;50.936;6.764;2023-11-19T07:15:46;13.50;99.90
14182;DHT22;7171;50.936;6.764;2023-11-19T07:18:13;13.50;99.90
14182;DHT22;7171;50.936;6.764;2023-11-19T07:20:41;13.50;99.90
14182;DHT22;7171;50.936;6.764;2023-11-19T07:23:09;13.50;99.90
14182;DHT22;7171;50.936;6.764;2023-11-19T07:25:35;13.50;99.90
14182;DHT22;7171;50.936;6.764;2023-11-19T07:28:02;13.50;99.90
14182;DHT22;7171;50.936;6.764;2023-11-19T07:32:57;13.50;99.90
14182;DHT22;7171;50.936;6.764;2023-11-19T07:35:24;13.50;99.90
14182;DHT22;7171;50.936;6.764;2023-11-19T07:37:52;13.50;99.90
14182;DHT22;7171;50.936;6.764;2023-11-19T07:40:18;13.50;99.90
14182;DHT22;7171;50.936;6.764;2023-11-19T07:42:46;13.50;99.90
14182;DHT22;7171;50.936;6.764;2023-11-19T07:45:13;13.50;99.90
14182;DHT22;7171;50.936;6.764;2023-11-19T07:47:39;13.50;99.90
14182;DHT22;7171;50.936;6.764;2023-11-19T07:50:07;13.50;99.90
14182;DHT22;7171;50.936;6.764;2023-11-19T07:52:35;13.50;99.90
14182;DHT22;7171;50.936;6.764;2023-11-19T07:55:03;13.50;99.90
14182;DHT22;7171;50.936;6.764;2023-11-19T07:57:30;13.50;99.90
14182;DHT22;7171;50.936;6.764;2023-11-19T07:59:57;13.50;99.90
14182;DHT22;7171;50.936;6.764;2023-11-19T08:02:24;13.50;99.90
14182;DHT22;7171;50.936;6.764;2023-11-19T08:04:51;13.50;99.90
14182;DHT22;7171;50.936;6.764;2023-11-19T08:07:20;13.50;99.90
14182;DHT22;7171;50.936;6.764;2023-11-19T08:09:47;13.50;99.90
14182;DHT22;7171;50.936;6.764;2023-11-19T08:12:15;13.60;99.90
14182;DHT22;7171;50.936;6.764;2023-11-19T08:14:43;13.50;99.90
14182;DHT22;7171;50.936;6.764;2023-11-19T08:17:10;13.50;99.90
14182;DHT22;7171;50.936;6.764;2023-11-19T08:19:37;13.50;99.90
14182;DHT22;7171;50.936;6.764;2023-11-19T08:22:04;12.50;99.90
14182;DHT22;7171;50.936;6.764;2023-11-19T08:24:31;13.50;99.90
14182;DHT22;7171;50.936;6.764;2023-11-19T08:26:57;13.50;99.90
14182;DHT22;7171;50.936;6.764;2023-11-19T08:29:26;13.60;99.90
14182;DHT22;7171;50.936;6.764;2023-11-19T08:31:53;13.60;99.90
14182;DHT22;7171;50.936;6.764;2023-11-19T08:34:19;13.60;99.90
14182;DHT22;7171;50.936;6.764;2023-11-19T08:36:50;13.60;99.90
14182;DHT22;7171;50.936;6.764;2023-11-19T08:39:18;13.60;99.90
14182;DHT22;7171;50.936;6.764;2023-11-19T08:41:46;13.60;99.90
14182;DHT22;7171;50.936;6.764;2023-11-19T08:44:13;13.70;99.90
14182;DHT22;7171;50.936;6.764;2023-11-19T08:46:47;13.60;99.90
14182;DHT22;7171;50.936;6.764;2023-11-19T08:49:14;13.70;99.90
14182;DHT22;7171;50.936;6.764;2023-11-19T08:51:41;13.70;99.90
14182;DHT22;7171;50.936;6.764;2023-11-19T08:54:08;13.70;99.90
14182;DHT22;7171;50.936;6.764;2023-11-19T08:56:35;13.80;99.90
14182;DHT22;7171;50.936;6.764;2023-11-19T08:59:02;13.80;99.90
14182;DHT22;7171;50.936;6.764;2023-11-19T09:01:29;13.80;99.90
14182;DHT22;7171;50.936;6.764;2023-11-19T09:03:57;13.90;99.90
14182;DHT22;7171;50.936;6.764;2023-11-19T09:06:24;13.90;99.90
14182;DHT22;7171;50.936;6.764;2023-11-19T09:08:51;13.90;99.90
14182;DHT22;7171;50.936;6.764;2023-11-19T09:11:18;14.70;99.90
14182;DHT22;7171;50.936;6.764;2023-11-19T09:13:45;14.00;99.90
14182;DHT22;7171;50.936;6.764;2023-11-19T09:16:12;14.00;99.90
14182;DHT22;7171;50.936;6.764;2023-11-19T09:18:39;14.00;99.90
14182;DHT22;7171;50.936;6.764;2023-11-19T09:21:07;14.10;99.90
14182;DHT22;7171;50.936;6.764;2023-11-19T09:23:34;14.10;99.90
14182;DHT22;7171;50.936;6.764;2023-11-19T09:26:05;14.00;99.90
14182;DHT22;7171;50.936;6.764;2023-11-19T09:28:32;14.00;99.90
14182;DHT22;7171;50.936;6.764;2023-11-19T09:33:25;14.10;99.90
14182;DHT22;7171;50.936;6.764;2023-11-19T09:35:52;14.10;99.90
14182;DHT22;7171;50.936;6.764;2023-11-19T09:38:20;14.20;99.90
14182;DHT22;7171;50.936;6.764;2023-11-19T09:40:47;14.20;99.90
14182;DHT22;7171;50.936;6.764;2023-11-19T09:43:15;14.30;99.90
14182;DHT22;7171;50.936;6.764;2023-11-19T09:45:48;14.30;99.90
14182;DHT22;7171;50.936;6.764;2023-11-19T09:48:16;14.30;99.90
14182;DHT22;7171;50.936;6.764;2023-11-19T09:50:44;14.30;99.90
14182;DHT22;7171;50.936;6.764;2023-11-19T09:53:12;14.40;99.90
14182;DHT22;7171;50.936;6.764;2023-11-19T09:55:40;14.40;99.90
14182;DHT22;7171;50.936;6.764;2023-11-19T09:58:07;14.50;99.90
14182;DHT22;7171;50.936;6.764;2023-11-19T10:00:34;14.40;99.90
14182;DHT22;7171;50.936;6.764;2023-11-19T10:03:01;14.50;99.90
14182;DHT22;7171;50.936;6.764;2023-11-19T10:05:30;14.50;99.90
14182;DHT22;7171;50.936;6.764;2023-11-19T10:07:58;14.50;99.90
14182;DHT22;7171;50.936;6.764;2023-11-19T10:10:25;14.50;99.90
14182;DHT22;7171;50.936;6.764;2023-11-19T10:12:53;14.50;99.90
14182;DHT22;7171;50.936;6.764;2023-11-19T10:15:22;14.50;99.90
14182;DHT22;7171;50.936;6.764;2023-11-19T10:17:49;14.50;99.90
14182;DHT22;7171;50.936;6.764;2023-11-19T10:20:16;14.60;99.90
14182;DHT22;7171;50.936;6.764;2023-11-19T10:22:43;14.60;99.90
14182;DHT22;7171;50.936;6.764;2023-11-19T10:25:22;14.70;99.90
14182;DHT22;7171;50.936;6.764;2023-11-19T10:27:50;14.70;99.90
14182;DHT22;7171;50.936;6.764;2023-11-19T10:30:22;14.70;99.90
14182;DHT22;7171;50.936;6.764;2023-11-19T10:33:06;14.70;99.90
14182;DHT22;7171;50.936;6.764;2023-11-19T10:35:33;14.80;99.90
14182;DHT22;7171;50.936;6.764;2023-11-19T10:38:01;14.80;99.90
14182;DHT22;7171;50.936;6.764;2023-11-19T10:40:49;14.80;99.90
14182;DHT22;7171;50.936;6.764;2023-11-19T10:43:16;14.80;99.90
14182;DHT22;7171;50.936;6.764;2023-11-19T10:45:45;14.80;99.90
14182;DHT22;7171;50.936;6.764;2023-11-19T10:48:11;14.80;99.90
14182;DHT22;7171;50.936;6.764;2023-11-19T10:50:40;14.80;99.90
14182;DHT22;7171;50.936;6.764;2023-11-19T10:53:08;14.90;99.90
14182;DHT22;7171;50.936;6.764;2023-11-19T10:55:36;14.80;99.90
14182;DHT22;7171;50.936;6.764;2023-11-19T10:58:04;14.80;99.90
14182;DHT22;7171;50.936;6.764;2023-11-19T11:00:37;14.80;99.90
14182;DHT22;7171;50.936;6.764;2023-11-19T11:03:12;14.80;99.90
14182;DHT22;7171;50.936;6.764;2023-11-19T11:05:42;14.80;99.90
14182;DHT22;7171;50.936;6.764;2023-11-19T11:08:10;14.80;99.90
14182;DHT22;7171;50.936;6.764;2023-11-19T11:10:42;14.70;99.90
14182;DHT22;7171;50.936;6.764;2023-11-19T11:13:10;14.70;99.90
14182;DHT22;7171;50.936;6.764;2023-11-19T11:15:37;14.70;99.90
14182;DHT22;7171;50.936;6.764;2023-11-19T11:18:07;14.70;99.90
14182;DHT22;7171;50.936;6.764;2023-11-19T11:20:35;14.70;99.90
14182;DHT22;7171;50.936;6.764;2023-11-19T11:23:29;14.70;99.90
14182;DHT22;7171;50.936;6.764;2023-11-19T11:26:23;14.70;99.90
14182;DHT22;7171;50.936;6.764;2023-11-19T11:28:55;14.70;99.90
14182;DHT22;7171;50.936;6.764;2023-11-19T11:31:31;14.70;99.90
14182;DHT22;7171;50.936;6.764;2023-11-19T11:34:19;14.70;99.90
14182;DHT22;7171;50.936;6.764;2023-11-19T11:36:58;14.70;99.90
14182;DHT22;7171;50.936;6.764;2023-11-19T11:39:29;14.70;99.90
14182;DHT22;7171;50.936;6.764;2023-11-19T11:44:59;14.70;99.90
14182;DHT22;7171;50.936;6.764;2023-11-19T11:50:55;14.60;99.90
14182;DHT22;7171;50.936;6.764;2023-11-19T11:53:23;14.60;99.90
14182;DHT22;7171;50.936;6.764;2023-11-19T11:55:57;14.50;99.90
14182;DHT22;7171;50.936;6.764;2023-11-19T11:58:29;14.50;99.90
14182;DHT22;7171;50.936;6.764;2023-11-19T12:00:58;14.60;99.90
14182;DHT22;7171;50.936;6.764;2023-11-19T12:03:28;14.60;99.90
14182;DHT22;7171;50.936;6.764;2023-11-19T12:05:57;14.60;99.90
14182;DHT22;7171;50.936;6.764;2023-11-19T12:08:26;14.60;99.90
14182;DHT22;7171;50.936;6.764;2023-11-19T12:10:55;14.70;99.90
14182;DHT22;7171;50.936;6.764;2023-11-19T12:13:23;14.70;99.90
14182;DHT22;7171;50.936;6.764;2023-11-19T12:16:08;14.70;99.90
14182;DHT22;7171;50.936;6.764;2023-11-19T12:18:36;14.80;99.90
14182;DHT22;7171;50.936;6.764;2023-11-19T12:21:06;14.80;99.90
14182;DHT22;7171;50.936;6.764;2023-11-19T12:23:35;14.80;99.90
14182;DHT22;7171;50.936;6.764;2023-11-19T12:26:02;14.80;99.90
14182;DHT22;7171;50.936;6.764;2023-11-19T12:28:29;14.90;99.90
14182;DHT22;7171;50.936;6.764;2023-11-19T12:31:07;14.80;99.90
14182;DHT22;7171;50.936;6.764;2023-11-19T12:33:35;14.80;99.90
14182;DHT22;7171;50.936;6.764;2023-11-19T12:36:05;14.90;99.90
14182;DHT22;7171;50.936;6.764;2023-11-19T12:38:33;14.90;99.90
14182;DHT22;7171;50.936;6.764;2023-11-19T12:41:03;14.90;99.90
14182;DHT22;7171;50.936;6.764;2023-11-19T12:43:30;14.90;99.90
14182;DHT22;7171;50.936;6.764;2023-11-19T12:45:57;14.90;99.90
14182;DHT22;7171;50.936;6.764;2023-11-19T12:48:24;14.90;99.90
14182;DHT22;7171;50.936;6.764;2023-11-19T12:50:51;14.90;99.90
14182;DHT22;7171;50.936;6.764;2023-11-19T12:53:19;14.90;99.90
14182;DHT22;7171;50.936;6.764;2023-11-19T12:55:46;14.90;99.90
14182;DHT22;7171;50.936;6.764;2023-11-19T12:58:29;14.90;99.90
14182;DHT22;7171;50.936;6.764;2023-11-19T13:01:00;14.80;99.90
14182;DHT22;7171;50.936;6.764;2023-11-19T13:03:30;14.80;99.90
14182;DHT22;7171;50.936;6.764;2023-11-19T13:06:05;14.90;99.90
14182;DHT22;7171;50.936;6.764;2023-11-19T13:08:38;14.80;99.90
14182;DHT22;7171;50.936;6.764;2023-11-19T13:11:05;14.90;99.90
14182;DHT22;7171;50.936;6.764;2023-11-19T13:13:33;14.80;99.90
14182;DHT22;7171;50.936;6.764;2023-11-19T13:16:05;14.90;99.90
14182;DHT22;7171;50.936;6.764;2023-11-19T13:18:32;14.80;99.90
14182;DHT22;7171;50.936;6.764;2023-11-19T13:20:58;14.80;99.90
14182;DHT22;7171;50.936;6.764;2023-11-19T13:23:25;14.80;99.90
14182;DHT22;7171;50.936;6.764;2023-11-19T13:25:53;14.80;99.90
14182;DHT22;7171;50.936;6.764;2023-11-19T13:28:20;14.80;99.90
14182;DHT22;7171;50.936;6.764;2023-11-19T13:30:48;14.80;99.90
14182;DHT22;7171;50.936;6.764;2023-11-19T13:33:15;14.80;99.90
14182;DHT22;7171;50.936;6.764;2023-11-19T13:35:41;14.80;99.90
14182;DHT22;7171;50.936;6.764;2023-11-19T13:38:08;14.80;99.90
14182;DHT22;7171;50.936;6.764;2023-11-19T13:40:35;14.80;99.90
14182;DHT22;7171;50.936;6.764;2023-11-19T13:43:03;14.80;99.90
14182;DHT22;7171;50.936;6.764;2023-11-19T13:45:30;14.90;99.90
14182;DHT22;7171;50.936;6.764;2023-11-19T13:47:57;14.80;99.90
14182;DHT22;7171;50.936;6.764;2023-11-19T13:50:24;14.90;99.90
14182;DHT22;7171;50.936;6.764;2023-11-19T13:52:49;14.90;99.90
14182;DHT22;7171;50.936;6.764;2023-11-19T13:55:16;14.90;99.90
14182;DHT22;7171;50.936;6.764;2023-11-19T13:57:43;14.90;99.90
14182;DHT22;7171;50.936;6.764;2023-11-19T14:00:14;15.00;99.90
14182;DHT22;7171;50.936;6.764;2023-11-19T14:02:42;15.00;99.90
14182;DHT22;7171;50.936;6.764;2023-11-19T14:05:09;15.00;99.90
14182;DHT22;7171;50.936;6.764;2023-11-19T14:07:36;15.00;99.90
14182;DHT22;7171;50.936;6.764;2023-11-19T14:10:03;15.00;99.90
14182;DHT22;7171;50.936;6.764;2023-11-19T14:12:31;15.00;99.90
14182;DHT22;7171;50.936;6.764;2023-11-19T14:14:58;15.00;99.90
14182;DHT22;7171;50.936;6.764;2023-11-19T14:17:26;15.00;99.90
14182;DHT22;7171;50.936;6.764;2023-11-19T14:19:53;15.00;99.90
14182;DHT22;7171;50.936;6.764;2023-11-19T14:22:20;15.00;99.90
14182;DHT22;7171;50.936;6.764;2023-11-19T14:24:46;15.00;99.90
14182;DHT22;7171;50.936;6.764;2023-11-19T14:27:13;15.00;99.90
14182;DHT22;7171;50.936;6.764;2023-11-19T14:29:41;15.00;99.90
14182;DHT22;7171;50.936;6.764;2023-11-19T14:32:08;15.00;99.90
14182;DHT22;7171;50.936;6.764;2023-11-19T14:34:37;15.00;99.90
14182;DHT22;7171;50.936;6.764;2023-11-19T14:37:04;15.00;99.90
14182;DHT22;7171;50.936;6.764;2023-11-19T14:39:30;14.90;99.90
14182;DHT22;7171;50.936;6.764;2023-11-19T14:41:57;14.90;99.90
14182;DHT22;7171;50.936;6.764;2023-11-19T14:44:29;14.90;99.90
14182;DHT22;7171;50.936;6.764;2023-11-19T14:46:56;14.90;99.90
14182;DHT22;7171;50.936;6.764;2023-11-19T14:49:23;14.80;99.90
14182;DHT22;7171;50.936;6.764;2023-11-19T14:51:52;14.80;99.90
14182;DHT22;7171;50.936;6.764;2023-11-19T14:54:18;14.80;99.90
14182;DHT22;7171;50.936;6.764;2023-11-19T14:56:45;14.80;99.90
14182;DHT22;7171;50.936;6.764;2023-11-19T14:59:12;14.80;99.90
14182;DHT22;7171;50.936;6.764;2023-11-19T15:01:38;14.70;99.90
14182;DHT22;7171;50.936;6.764;2023-11-19T15:04:06;14.70;99.90
14182;DHT22;7171;50.936;6.764;2023-11-19T15:06:33;14.70;99.90
14182;DHT22;7171;50.936;6.764;2023-11-19T15:09:01;14.70;99.90
14182;DHT22;7171;50.936;6.764;2023-11-19T15:11:28;14.70;99.90
14182;DHT22;7171;50.936;6.764;2023-11-19T15:13:54;14.70;99.90
14182;DHT22;7171;50.936;6.764;2023-11-19T15:16:21;14.70;99.90
14182;DHT22;7171;50.936;6.764;2023-11-19T15:18:56;14.60;99.90
14182;DHT22;7171;50.936;6.764;2023-11-19T15:23:51;14.60;99.90
14182;DHT22;7171;50.936;6.764;2023-11-19T15:26:20;14.50;99.90
14182;DHT22;7171;50.936;6.764;2023-11-19T15:28:46;14.50;99.90
14182;DHT22;7171;50.936;6.764;2023-11-19T15:31:13;14.50;99.90
14182;DHT22;7171;50.936;6.764;2023-11-19T15:33:41;14.40;99.90
14182;DHT22;7171;50.936;6.764;2023-11-19T15:36:08;14.40;99.90
14182;DHT22;7171;50.936;6.764;2023-11-19T15:38:35;14.30;99.90
14182;DHT22;7171;50.936;6.764;2023-11-19T15:41:02;14.20;99.90
14182;DHT22;7171;50.936;6.764;2023-11-19T15:43:31;14.20;99.90
14182;DHT22;7171;50.936;6.764;2023-11-19T15:45:58;14.10;99.90
14182;DHT22;7171;50.936;6.764;2023-11-19T15:48:25;14.10;99.90
14182;DHT22;7171;50.936;6.764;2023-11-19T15:50:52;14.00;99.90
14182;DHT22;7171;50.936;6.764;2023-11-19T15:53:19;14.00;99.90
14182;DHT22;7171;50.936;6.764;2023-11-19T15:55:46;14.00;99.90
14182;DHT22;7171;50.936;6.764;2023-11-19T15:58:12;14.00;99.90
14182;DHT22;7171;50.936;6.764;2023-11-19T16:00:41;13.90;99.90
14182;DHT22;7171;50.936;6.764;2023-11-19T16:03:11;13.90;99.90
14182;DHT22;7171;50.936;6.764;2023-11-19T16:05:39;13.90;99.90
14182;DHT22;7171;50.936;6.764;2023-11-19T16:08:05;13.90;99.90